Time;durP1;ratioP1;P1;durP2;ratioP2;P2;SDS_P1;SDS_P2;PMS_P1;PMS_P2;Temp;Humidity;BMP_temperature;BMP_pressure;BME280_temperature;BME280_humidity;BME280_pressure;Samples;Min_cycle;Max_cycle;Signal;HPM_P1;HPM_P2
2021/12/19 00:00:37;;;;;;;6.77;3.80;;;;;;;1.86;76.58;97671.91;5050248;28;20190;-66
2021/12/19 00:11:00;;;;;;;6.63;4.03;;;;;;;1.76;76.92;97661.69;5050047;28;20197;-62
2021/12/19 00:14:23;;;;;;;5.93;3.97;;;;;;;1.71;77.42;97668.53;5049988;28;20225;-66
2021/12/19 00:17:44;;;;;;;6.83;4.47;;;;;;;1.76;76.78;97665.09;5049907;28;20186;-64
2021/12/19 00:21:04;;;;;;;6.97;4.33;;;;;;;1.76;76.84;97662.56;5050029;28;20240;-67
2021/12/19 00:24:25;;;;;;;10.63;6.07;;;;;;;1.82;77.15;97661.69;5049986;28;20213;-67
2021/12/19 00:27:46;;;;;;;6.53;4.40;;;;;;;1.85;76.70;97656.59;5049892;28;20693;-65
2021/12/19 00:31:07;;;;;;;6.33;4.50;;;;;;;1.80;77.19;97653.19;5049714;28;20194;-66
2021/12/19 00:34:28;;;;;;;8.13;4.73;;;;;;;1.87;78.26;97665.09;5049910;28;20213;-66
2021/12/19 00:37:48;;;;;;;5.83;3.90;;;;;;;1.83;77.35;97663.41;5049663;28;20686;-66
2021/12/19 00:41:09;;;;;;;5.10;3.60;;;;;;;1.79;78.79;97648.94;5049476;28;20208;-62
2021/12/19 00:44:30;;;;;;;4.93;3.90;;;;;;;1.81;78.66;97639.56;5049462;28;20810;-64
2021/12/19 00:47:50;;;;;;;6.67;3.50;;;;;;;1.77;77.71;97633.63;5049380;28;20205;-68
2021/12/19 00:51:12;;;;;;;4.80;3.37;;;;;;;1.72;78.33;97625.13;5049912;28;20202;-62
2021/12/19 00:54:32;;;;;;;7.80;4.73;;;;;;;1.72;77.66;97624.25;5049150;28;20616;-65
2021/12/19 00:57:53;;;;;;;6.20;4.33;;;;;;;1.26;79.34;97619.22;5049431;28;20700;-62
2021/12/19 01:01:14;;;;;;;8.47;4.57;;;;;;;1.33;79.89;97626.03;5049110;28;20200;-61
2021/12/19 01:04:34;;;;;;;6.87;3.90;;;;;;;1.42;79.77;97625.19;5048985;28;20250;-61
2021/12/19 01:07:55;;;;;;;6.40;4.37;;;;;;;1.61;79.38;97611.53;5049318;28;20197;-64
2021/12/19 01:11:16;;;;;;;6.43;4.20;;;;;;;1.50;78.63;97601.34;5049215;28;20276;-62
2021/12/19 01:14:36;;;;;;;5.57;3.97;;;;;;;1.42;76.85;97599.66;5048873;28;20217;-61
2021/12/19 01:17:57;;;;;;;6.70;3.73;;;;;;;1.46;77.25;97596.25;5048942;28;20181;-64
2021/12/19 01:21:18;;;;;;;4.87;3.80;;;;;;;1.56;76.88;97585.16;5049179;28;20194;-61
2021/12/19 01:24:38;;;;;;;5.37;3.53;;;;;;;1.58;77.03;97586.03;5048829;28;20202;-61
2021/12/19 01:27:59;;;;;;;5.97;4.03;;;;;;;1.11;77.67;97547.84;5048701;28;20599;-61
2021/12/19 01:31:20;;;;;;;8.70;4.20;;;;;;;1.37;78.03;97579.25;5048540;28;20197;-63
2021/12/19 01:34:40;;;;;;;5.83;3.73;;;;;;;1.35;78.60;97572.44;5048648;28;20225;-63
2021/12/19 01:38:01;;;;;;;5.67;3.60;;;;;;;1.43;77.55;97575.84;5048579;28;20190;-68
2021/12/19 01:41:22;;;;;;;6.80;4.17;;;;;;;1.39;78.02;97562.25;5048420;28;20194;-62
2021/12/19 01:44:44;;;;;;;4.97;3.77;;;;;;;1.35;77.91;97564.78;5048367;28;20242;-67
2021/12/19 01:48:05;;;;;;;7.97;4.13;;;;;;;1.37;77.99;97563.09;5046350;28;20704;-61
2021/12/19 01:51:25;;;;;;;5.23;3.50;;;;;;;1.25;77.76;97555.47;5048530;28;20186;-60
2021/12/19 01:54:46;;;;;;;7.70;3.97;;;;;;;1.13;78.01;97556.31;5048039;28;20217;-65
2021/12/19 01:58:08;;;;;;;4.13;3.20;;;;;;;1.15;78.63;97554.63;5048233;28;20213;-61
2021/12/19 02:01:28;;;;;;;5.77;3.27;;;;;;;1.11;78.57;97550.38;5048358;28;20198;-64
2021/12/19 02:04:49;;;;;;;5.47;3.27;;;;;;;0.99;79.91;97547.81;5031816;28;20243;-67
2021/12/19 02:08:10;;;;;;;4.93;3.20;;;;;;;0.92;80.80;97540.19;5048063;28;20273;-65
2021/12/19 02:11:30;;;;;;;4.47;3.57;;;;;;;1.06;80.16;97544.41;5047681;28;20239;-68
2021/12/19 02:14:51;;;;;;;4.10;3.13;;;;;;;1.06;80.32;97541.88;5047825;28;20304;-66
2021/12/19 02:17:55;;;;;;;5.50;3.57;;;;;;;0.91;80.51;97539.31;5047790;28;20247;-65
2021/12/19 02:20:23;;;;;;;7.00;3.73;;;;;;;0.82;78.87;97527.41;5046552;28;20213;-64
2021/12/19 02:22:50;;;;;;;6.07;3.47;;;;;;;0.85;79.40;97521.47;5047809;28;20296;-67
2021/12/19 02:25:18;;;;;;;5.00;3.30;;;;;;;0.83;78.88;97510.44;5047997;28;20622;-67
2021/12/19 02:27:45;;;;;;;5.17;3.40;;;;;;;0.88;78.07;97516.41;5047633;28;20193;-63
2021/12/19 02:30:13;;;;;;;4.87;3.50;;;;;;;0.80;77.86;97524.03;5047576;28;20229;-62
2021/12/19 02:32:41;;;;;;;8.00;4.00;;;;;;;0.79;78.91;97524.03;5047630;28;20288;-62
2021/12/19 02:35:14;;;;;;;10.63;5.33;;;;;;;0.61;81.85;97518.94;5047269;28;20307;-62
2021/12/19 02:48:40;;;;;;;7.00;4.03;;;;;;;0.38;81.84;97506.16;5055101;28;20218;-66
2021/12/19 02:51:07;;;;;;;6.13;3.67;;;;;;;0.43;81.35;97498.53;5047407;28;20202;-66
2021/12/19 02:53:41;;;;;;;6.97;4.67;;;;;;;0.40;80.76;97493.44;5047345;28;20286;-66
2021/12/19 02:56:10;;;;;;;7.07;3.77;;;;;;;0.34;80.34;97495.97;5047153;28;20189;-64
2021/12/19 02:58:41;;;;;;;6.23;4.20;;;;;;;0.14;80.94;97485.78;5047065;28;21076;-63
2021/12/19 03:01:13;;;;;;;4.53;3.80;;;;;;;0.10;81.36;97486.63;5046956;28;20236;-63
2021/12/19 03:03:40;;;;;;;4.87;3.77;;;;;;;-0.12;81.69;97480.59;5047137;28;20201;-60
2021/12/19 03:06:07;;;;;;;5.43;4.00;;;;;;;-0.27;82.41;97483.09;5047219;28;20186;-65
2021/12/19 03:08:36;;;;;;;6.77;4.17;;;;;;;-0.28;82.32;97478.88;5047209;28;20251;-66
2021/12/19 03:18:50;;;;;;;7.63;3.63;;;;;;;-0.15;82.52;97472.97;5046801;28;20199;-63
2021/12/19 03:21:18;;;;;;;7.07;4.17;;;;;;;-0.10;82.02;97481.47;5046994;28;20204;-61
2021/12/19 03:23:45;;;;;;;6.00;3.83;;;;;;;-0.19;81.80;97483.13;5046956;28;20280;-65
2021/12/19 03:26:12;;;;;;;6.87;3.97;;;;;;;-0.10;81.16;97481.47;5046626;28;20250;-61
2021/12/19 03:28:40;;;;;;;6.27;4.10;;;;;;;-0.19;81.69;97478.91;5046094;28;20752;-69
2021/12/19 03:31:07;;;;;;;6.27;4.00;;;;;;;-0.22;81.56;97466.16;5046499;28;20204;-61
2021/12/19 03:33:38;;;;;;;7.47;4.10;;;;;;;-0.07;81.48;97476.38;5046583;28;20230;-67
2021/12/19 03:36:07;;;;;;;5.90;3.43;;;;;;;-0.07;81.88;97484.03;5046580;28;20212;-66
2021/12/19 03:38:39;;;;;;;6.27;4.00;;;;;;;-0.29;82.62;97466.97;5046362;28;20232;-68
2021/12/19 03:41:16;;;;;;;6.40;4.23;;;;;;;-0.11;81.89;97469.59;5046474;28;20227;-67
2021/12/19 03:43:43;;;;;;;6.20;4.00;;;;;;;-0.02;81.23;97469.59;5046352;28;20253;-66
2021/12/19 03:46:11;;;;;;;7.50;4.47;;;;;;;-0.08;81.22;97466.19;5046342;28;20215;-65
2021/12/19 03:48:38;;;;;;;5.53;4.20;;;;;;;-0.42;81.87;97467.78;5046460;28;20569;-67
2021/12/19 03:51:06;;;;;;;6.67;4.43;;;;;;;-0.64;83.12;97463.47;5046504;28;20783;-66
2021/12/19 03:53:34;;;;;;;6.67;4.43;;;;;;;-0.60;83.07;97454.16;5045153;28;20194;-65
2021/12/19 03:56:01;;;;;;;7.80;4.13;;;;;;;-0.58;82.38;97455.88;5046367;28;20225;-65
2021/12/19 03:58:28;;;;;;;8.27;3.93;;;;;;;-0.69;82.93;97456.66;5046314;28;20200;-66
2021/12/19 04:00:59;;;;;;;7.40;4.40;;;;;;;-0.66;83.21;97459.22;5046160;28;20207;-65
2021/12/19 04:03:28;;;;;;;5.77;3.50;;;;;;;-0.79;83.13;97450.69;5046382;28;20593;-66
2021/12/19 04:05:56;;;;;;;7.73;4.70;;;;;;;-0.92;83.60;97449.75;5046022;28;20224;-68
2021/12/19 04:08:23;;;;;;;4.87;3.10;;;;;;;-0.92;83.34;97456.53;5046231;28;20235;-64
2021/12/19 04:10:53;;;;;;;3.93;3.37;;;;;;;-0.97;84.02;97453.97;5046239;28;20240;-63
2021/12/19 04:13:21;;;;;;;6.23;3.90;;;;;;;-1.13;84.63;97453.84;5046182;28;20227;-65
2021/12/19 04:15:49;;;;;;;6.33;3.90;;;;;;;-1.24;85.97;97436.03;5048459;28;20707;-65
2021/12/19 04:18:16;;;;;;;5.33;4.00;;;;;;;-1.10;85.38;97446.28;5066075;28;20724;-62
2021/12/19 04:20:43;;;;;;;6.93;4.27;;;;;;;-1.19;85.73;97433.50;5066174;28;20205;-66
2021/12/19 04:23:11;;;;;;;9.00;4.47;;;;;;;-1.26;85.84;97437.72;5065815;28;20316;-65
2021/12/19 04:25:38;;;;;;;6.93;4.60;;;;;;;-1.43;85.63;97392.72;5065981;28;20247;-67
2021/12/19 04:28:05;;;;;;;10.73;5.73;;;;;;;-1.26;86.32;97431.78;5055999;28;20231;-67
2021/12/19 04:30:32;;;;;;;7.67;5.50;;;;;;;-1.41;86.78;97426.59;5055721;28;20271;-65
2021/12/19 04:33:07;;;;;;;9.63;4.77;;;;;;;-1.29;86.12;97421.59;5045846;28;20214;-64
2021/12/19 04:35:37;;;;;;;7.10;4.70;;;;;;;-1.07;86.24;97429.34;5045791;28;20737;-64
2021/12/19 04:40:54;;;;;;;7.43;4.67;;;;;;;-1.22;85.85;97425.88;5059413;28;20691;-67
2021/12/19 04:52:56;;;;;;;9.47;5.23;;;;;;;-0.86;83.27;97413.34;5067104;28;20213;-67
2021/12/19 05:00:05;;;;;;;9.43;5.53;;;;;;;-0.73;81.45;97404.94;5050019;28;20200;-64
2021/12/19 05:05:24;;;;;;;7.30;4.73;;;;;;;-0.62;80.44;97405.84;5064117;28;20197;-66
2021/12/19 05:16:09;;;;;;;12.33;5.77;;;;;;;-1.08;81.11;97406.47;5048867;28;20247;-63
2021/12/19 05:18:39;;;;;;;12.60;7.37;;;;;;;-1.11;81.42;97412.38;5049062;28;20291;-66
2021/12/19 05:21:16;;;;;;;11.77;7.40;;;;;;;-1.16;81.84;97408.13;5049009;28;20296;-67
2021/12/19 05:26:17;;;;;;;11.97;7.07;;;;;;;-0.98;81.08;97410.75;5049168;28;20189;-66
2021/12/19 05:28:44;;;;;;;8.67;5.87;;;;;;;-1.14;81.97;97407.31;5047586;28;20652;-66
2021/12/19 05:31:11;;;;;;;13.50;8.63;;;;;;;-1.32;81.86;97406.34;5048836;28;20224;-66
2021/12/19 05:33:38;;;;;;;13.70;8.30;;;;;;;-1.50;82.64;97390.97;5048766;28;20293;-67
2021/12/19 05:44:09;;;;;;;11.03;7.13;;;;;;;-1.47;82.53;97399.47;5066988;28;20255;-67
2021/12/19 05:47:08;;;;;;;17.87;8.40;;;;;;;-1.69;83.33;97405.25;5068634;28;20222;-67
2021/12/19 05:49:35;;;;;;;10.53;5.27;;;;;;;-1.79;83.90;97414.47;5068789;28;20562;-67
2021/12/19 05:52:03;;;;;;;13.00;6.67;;;;;;;-1.84;84.73;97402.59;5068317;28;20198;-67
2021/12/19 05:54:30;;;;;;;9.57;6.07;;;;;;;-1.85;84.52;97403.41;5067159;28;20213;-67
2021/12/19 05:56:57;;;;;;;10.23;6.07;;;;;;;-1.80;84.74;97397.53;5068491;28;20199;-68
2021/12/19 05:59:24;;;;;;;10.00;6.30;;;;;;;-1.83;84.30;97392.44;5068528;28;20218;-67
2021/12/19 06:01:51;;;;;;;8.67;5.20;;;;;;;-1.76;84.47;97398.41;5068477;28;20265;-66
2021/12/19 06:04:18;;;;;;;12.23;5.77;;;;;;;-1.68;84.58;97390.03;5058560;28;20290;-62
2021/12/19 06:06:46;;;;;;;10.27;6.53;;;;;;;-1.48;84.01;97394.41;5048436;28;20243;-67
2021/12/19 06:09:13;;;;;;;10.77;5.83;;;;;;;-1.43;83.30;97390.19;5048402;28;20728;-68
2021/12/19 06:11:41;;;;;;;8.73;5.67;;;;;;;-1.31;83.60;97397.88;5048239;28;20691;-66
2021/12/19 06:14:09;;;;;;;15.50;7.60;;;;;;;-1.10;83.12;97398.00;5048507;28;20192;-66
2021/12/19 06:16:36;;;;;;;18.27;8.80;;;;;;;-0.95;82.10;97393.00;5048005;28;20719;-66
2021/12/19 06:19:03;;;;;;;15.93;8.60;;;;;;;-0.81;81.07;97381.19;5047855;28;20287;-66
2021/12/19 06:21:30;;;;;;;13.73;8.30;;;;;;;-0.87;80.42;97384.53;5048024;28;20184;-67
2021/12/19 06:23:57;;;;;;;23.23;11.20;;;;;;;-0.69;80.63;97383.78;5047984;28;20228;-67
2021/12/19 06:26:25;;;;;;;29.90;12.13;;;;;;;-0.64;79.62;97368.53;5047925;28;21001;-67
2021/12/19 06:28:52;;;;;;;21.63;9.70;;;;;;;-0.49;79.46;97376.19;5048111;28;20229;-65
2021/12/19 06:31:19;;;;;;;15.33;9.23;;;;;;;-0.43;78.36;97369.44;5063186;28;20194;-62
2021/12/19 06:33:46;;;;;;;12.93;8.03;;;;;;;-0.49;78.32;97374.50;5047657;28;20200;-67
2021/12/19 06:36:13;;;;;;;18.63;10.07;;;;;;;-0.49;77.96;97371.97;5046138;28;20736;-66
2021/12/19 06:38:40;;;;;;;20.00;11.90;;;;;;;-0.50;77.70;97372.81;5047301;28;20209;-65
2021/12/19 06:41:07;;;;;;;25.33;12.73;;;;;;;-0.49;77.52;97376.19;5047255;28;20270;-66
2021/12/19 06:43:34;;;;;;;28.23;14.10;;;;;;;-0.43;78.01;97379.59;5047360;28;20333;-67
2021/12/19 06:46:01;;;;;;;20.43;13.40;;;;;;;-0.31;78.65;97382.16;5047620;28;20189;-68
2021/12/19 06:48:29;;;;;;;29.10;17.70;;;;;;;-0.24;77.17;97380.50;5047736;28;20280;-67
2021/12/19 06:50:57;;;;;;;18.60;11.27;;;;;;;-0.18;76.41;97394.06;5047164;28;20220;-67
2021/12/19 06:53:24;;;;;;;30.43;15.53;;;;;;;-0.03;76.08;97386.47;5047569;28;20228;-66
2021/12/19 06:55:51;;;;;;;25.47;12.70;;;;;;;-0.11;76.36;97377.13;5046997;28;20231;-68
2021/12/19 06:58:18;;;;;;;20.73;13.00;;;;;;;0.11;76.47;97368.63;5047747;28;20206;-68
2021/12/19 07:00:45;;;;;;;17.27;10.30;;;;;;;0.29;75.51;97378.00;5047355;28;20388;-68
2021/12/19 07:03:15;;;;;;;19.00;10.97;;;;;;;0.26;75.28;97378.84;5046891;28;20193;-67
2021/12/19 07:05:43;;;;;;;22.03;12.13;;;;;;;0.39;75.12;97369.50;5047254;28;20615;-69
2021/12/19 07:08:10;;;;;;;20.60;11.77;;;;;;;0.38;75.81;97375.41;5046916;28;20681;-67
2021/12/19 07:10:37;;;;;;;25.47;11.40;;;;;;;0.43;75.14;97366.94;5047481;28;20312;-66
2021/12/19 07:13:04;;;;;;;24.17;13.07;;;;;;;0.39;75.32;97354.22;5046846;28;20296;-67
2021/12/19 07:15:31;;;;;;;27.83;16.13;;;;;;;0.32;76.40;97355.06;5046703;28;20236;-66
2021/12/19 07:18:04;;;;;;;19.83;13.27;;;;;;;0.32;76.20;97355.06;5046758;28;20198;-65
2021/12/19 07:20:31;;;;;;;23.83;13.57;;;;;;;0.35;75.95;97349.97;5046655;28;20301;-68
2021/12/19 07:22:58;;;;;;;18.93;12.60;;;;;;;0.46;76.14;97345.69;5046608;28;20268;-66
2021/12/19 07:25:26;;;;;;;25.70;14.77;;;;;;;0.43;74.58;97335.53;5046518;28;20201;-67
2021/12/19 07:27:53;;;;;;;23.63;14.83;;;;;;;0.61;74.73;97341.44;5046250;28;20216;-66
2021/12/19 07:30:20;;;;;;;21.77;14.07;;;;;;;0.43;74.83;97344.03;5046961;28;20743;-68
2021/12/19 07:32:47;;;;;;;15.43;9.97;;;;;;;0.56;74.66;97334.63;5044934;28;20193;-68
2021/12/19 07:35:22;;;;;;;21.80;11.13;;;;;;;0.62;74.61;97326.97;5046596;28;20229;-69
2021/12/19 07:37:52;;;;;;;20.57;12.27;;;;;;;0.82;75.22;97320.13;5060294;28;20201;-67
2021/12/19 07:40:21;;;;;;;26.17;14.33;;;;;;;1.04;75.22;97316.66;5089519;28;20897;-63
2021/12/19 07:42:49;;;;;;;22.43;13.77;;;;;;;1.14;74.35;97325.09;5045976;28;20232;-62
2021/12/19 07:45:16;;;;;;;16.13;10.83;;;;;;;1.18;74.39;97319.97;5046148;28;20204;-64
2021/12/19 07:47:45;;;;;;;15.10;9.53;;;;;;;1.27;73.80;97324.19;5065262;28;20196;-67
2021/12/19 07:50:13;;;;;;;15.23;8.63;;;;;;;1.23;72.88;97325.91;5062766;28;20649;-68
2021/12/19 07:52:40;;;;;;;12.60;8.70;;;;;;;1.21;73.35;97311.47;5047403;28;20245;-64
2021/12/19 07:55:08;;;;;;;16.40;8.60;;;;;;;1.13;74.17;97320.88;5046207;28;20222;-64
2021/12/19 07:57:35;;;;;;;14.57;8.57;;;;;;;1.07;74.97;97321.72;5061372;28;20207;-65
2021/12/19 08:00:08;;;;;;;15.80;8.83;;;;;;;0.93;76.28;97317.56;5066243;28;20187;-67
2021/12/19 08:02:42;;;;;;;15.80;9.80;;;;;;;1.05;76.39;97318.31;5066314;28;20188;-64
2021/12/19 08:05:09;;;;;;;16.23;9.03;;;;;;;1.00;76.62;97314.97;5066162;28;20258;-65
2021/12/19 08:07:38;;;;;;;18.80;9.03;;;;;;;1.00;76.13;97294.56;5066503;28;20262;-61
2021/12/19 08:12:39;;;;;;;15.83;10.00;;;;;;;1.31;76.16;97311.41;5066131;28;20349;-63
2021/12/19 08:15:08;;;;;;;15.93;10.37;;;;;;;1.32;73.91;97292.69;5068876;28;20197;-64
2021/12/19 08:17:35;;;;;;;12.60;8.00;;;;;;;1.62;73.09;97318.03;5070044;28;20753;-66
2021/12/19 08:20:09;;;;;;;15.80;8.53;;;;;;;1.69;73.45;97318.81;5070084;28;20203;-64
2021/12/19 08:22:36;;;;;;;14.50;8.50;;;;;;;1.82;72.85;97305.13;5070218;28;20252;-66
2021/12/19 08:25:04;;;;;;;10.00;5.80;;;;;;;1.97;72.45;97305.00;5069864;28;20254;-67
2021/12/19 08:27:36;;;;;;;8.00;5.90;;;;;;;2.08;72.34;97297.25;5068603;28;20208;-67
2021/12/19 08:30:07;;;;;;;8.70;6.03;;;;;;;1.96;72.94;97294.81;5069877;28;20192;-67
2021/12/19 08:32:34;;;;;;;10.83;6.23;;;;;;;1.98;72.60;97285.44;5069553;28;20189;-68
2021/12/19 08:35:02;;;;;;;8.27;5.37;;;;;;;2.13;71.73;97288.69;5069225;28;20200;-69
2021/12/19 08:37:29;;;;;;;7.77;5.37;;;;;;;2.16;70.69;97273.34;5069154;28;20320;-69
2021/12/19 08:39:56;;;;;;;11.10;4.97;;;;;;;2.29;70.70;97268.94;5069494;28;20645;-67
2021/12/19 08:42:24;;;;;;;7.97;5.10;;;;;;;2.28;71.59;97268.13;5069161;28;20236;-67
2021/12/19 08:44:51;;;;;;;7.83;5.27;;;;;;;2.16;70.73;97275.06;5069425;28;20201;-68
2021/12/19 08:47:18;;;;;;;11.00;7.00;;;;;;;2.01;70.47;97267.53;5067955;28;20636;-60
2021/12/19 08:49:45;;;;;;;13.10;7.00;;;;;;;2.03;71.61;97270.91;5069109;28;20708;-64
2021/12/19 08:52:12;;;;;;;10.50;6.63;;;;;;;2.14;70.96;97261.44;5068975;28;20634;-64
2021/12/19 08:54:40;;;;;;;11.93;6.00;;;;;;;2.10;70.75;97258.06;5068989;28;20212;-69
2021/12/19 08:57:08;;;;;;;10.73;6.10;;;;;;;2.14;71.48;97244.38;5067087;28;20644;-67
2021/12/19 08:59:35;;;;;;;12.87;7.30;;;;;;;2.22;70.82;97250.31;5062420;28;20196;-65
2021/12/19 09:02:02;;;;;;;14.17;7.97;;;;;;;2.32;70.95;97251.03;5049294;28;20254;-68
2021/12/19 09:04:30;;;;;;;15.63;7.87;;;;;;;2.33;70.37;97247.63;5049097;28;20281;-63
2021/12/19 09:06:59;;;;;;;9.60;5.40;;;;;;;2.27;70.09;97243.41;5049078;28;20194;-64
2021/12/19 09:09:27;;;;;;;11.43;6.03;;;;;;;2.32;69.51;97231.47;5048824;28;20209;-66
2021/12/19 09:11:54;;;;;;;11.10;6.03;;;;;;;2.17;69.59;97217.97;5047397;28;20736;-65
2021/12/19 09:14:21;;;;;;;11.33;5.80;;;;;;;2.28;69.37;97223.84;5047726;28;20292;-69
2021/12/19 09:16:48;;;;;;;9.60;5.30;;;;;;;2.43;69.97;97218.56;5047293;28;20584;-65
2021/12/19 09:19:15;;;;;;;8.93;5.40;;;;;;;2.54;69.33;97210.75;5049179;28;20193;-65
2021/12/19 09:21:43;;;;;;;9.93;5.33;;;;;;;2.79;68.80;97212.16;5047316;28;20281;-64
2021/12/19 09:24:10;;;;;;;7.27;5.03;;;;;;;2.84;67.34;97207.84;5048777;28;20186;-66
2021/12/19 09:26:38;;;;;;;9.73;4.83;;;;;;;2.94;67.38;97206.84;5048038;28;20679;-69
2021/12/19 09:29:05;;;;;;;7.13;4.13;;;;;;;2.93;68.02;97206.00;5048917;28;20201;-65
2021/12/19 09:31:32;;;;;;;11.00;5.67;;;;;;;3.04;66.67;97199.03;5047740;28;20591;-69
2021/12/19 09:33:59;;;;;;;9.30;5.30;;;;;;;3.16;66.94;97188.63;5047323;28;20693;-65
2021/12/19 09:36:26;;;;;;;9.83;5.23;;;;;;;3.32;65.98;97188.41;5048841;28;20233;-68
2021/12/19 09:38:54;;;;;;;8.93;5.57;;;;;;;3.36;66.29;97187.50;5048579;28;20201;-63
2021/12/19 09:41:33;;;;;;;6.83;5.17;;;;;;;3.43;66.12;97179.69;5048346;28;20200;-63
2021/12/19 09:44:06;;;;;;;9.57;5.50;;;;;;;3.57;64.07;97174.31;5048803;28;20227;-66
2021/12/19 09:46:39;;;;;;;7.70;4.30;;;;;;;3.67;62.09;97171.59;5051069;28;20239;-64
2021/12/19 09:49:59;;;;;;;10.43;5.57;;;;;;;3.54;62.71;97162.44;5063711;28;20680;-65
2021/12/19 09:52:40;;;;;;;8.67;5.17;;;;;;;3.64;62.76;97155.44;5046067;28;20198;-66
2021/12/19 09:55:08;;;;;;;7.70;5.23;;;;;;;3.85;61.68;97152.53;5064208;28;20700;-65
2021/12/19 09:57:36;;;;;;;8.50;5.00;;;;;;;3.80;60.67;97141.50;5067984;28;20255;-69
2021/12/19 10:00:05;;;;;;;8.63;5.20;;;;;;;3.79;60.30;97139.84;5068600;28;20223;-70
2021/12/19 10:02:40;;;;;;;9.87;5.20;;;;;;;4.01;59.92;97151.38;5068132;28;20498;-68
2021/12/19 10:05:37;;;;;;;8.77;5.57;;;;;;;4.08;59.64;97142.72;5067881;28;20259;-67
2021/12/19 10:08:09;;;;;;;6.90;4.83;;;;;;;4.15;59.97;97139.13;5063804;28;20205;-68
2021/12/19 10:10:47;;;;;;;9.73;5.43;;;;;;;4.20;60.13;97136.50;5068270;28;20197;-69
2021/12/19 10:13:14;;;;;;;8.50;5.30;;;;;;;4.24;59.93;97133.00;5066376;28;20209;-66
2021/12/19 10:15:45;;;;;;;8.10;5.87;;;;;;;4.33;59.93;97120.00;5067741;28;20209;-67
2021/12/19 10:18:15;;;;;;;9.93;5.30;;;;;;;4.33;60.57;97112.31;5068194;28;20187;-65
2021/12/19 10:20:46;;;;;;;7.77;5.67;;;;;;;4.32;60.29;97106.34;5067846;28;20273;-62
2021/12/19 10:23:20;;;;;;;6.03;4.03;;;;;;;4.26;59.68;97103.91;5067682;28;20248;-68
2021/12/19 10:26:09;;;;;;;8.37;5.83;;;;;;;4.39;60.62;97107.06;5067869;28;20259;-63
2021/12/19 10:28:54;;;;;;;8.10;5.37;;;;;;;4.47;60.34;97095.75;5067972;28;20278;-68
2021/12/19 10:31:25;;;;;;;9.90;4.83;;;;;;;4.58;59.86;97098.09;5067686;28;20202;-64
2021/12/19 10:33:52;;;;;;;6.77;4.63;;;;;;;4.61;59.34;97101.47;5067734;28;20260;-69
2021/12/19 10:36:20;;;;;;;8.93;5.13;;;;;;;4.75;59.22;97089.19;5067765;28;20217;-69
2021/12/19 10:39:03;;;;;;;8.37;4.53;;;;;;;4.80;59.46;97089.91;5066938;28;20693;-67
2021/12/19 10:41:34;;;;;;;8.07;4.77;;;;;;;4.68;58.95;97085.03;5066325;28;20192;-70
2021/12/19 10:44:11;;;;;;;10.77;4.63;;;;;;;4.71;58.76;97086.72;5067308;28;20323;-62
2021/12/19 10:46:42;;;;;;;6.73;4.70;;;;;;;4.74;57.97;97079.78;5067108;28;20207;-66
2021/12/19 10:49:21;;;;;;;6.33;4.33;;;;;;;4.62;58.09;97069.78;5067166;28;20263;-68
2021/12/19 10:51:50;;;;;;;7.13;4.43;;;;;;;4.78;57.82;97066.00;5067170;28;20253;-66
2021/12/19 10:54:17;;;;;;;6.53;4.07;;;;;;;4.73;57.74;97052.47;5066784;28;20197;-67
2021/12/19 10:57:27;;;;;;;5.90;3.10;;;;;;;4.67;54.06;97052.59;5063378;28;20308;-70
2021/12/19 11:00:27;;;;;;;5.03;3.97;;;;;;;4.49;55.33;97047.03;5056357;28;20598;-68
2021/12/19 11:03:11;;;;;;;6.37;2.87;;;;;;;4.58;52.32;97032.28;5046595;28;20184;-68
2021/12/19 11:06:40;;;;;;;3.93;2.60;;;;;;;4.71;51.78;97030.28;5062752;28;20669;-68
2021/12/19 11:10:01;;;;;;;3.97;2.80;;;;;;;4.85;51.36;97020.53;5066616;28;20200;-67
2021/12/19 11:13:27;;;;;;;5.60;3.73;;;;;;;4.72;52.08;97012.28;5066369;28;20715;-68
2021/12/19 11:16:48;;;;;;;5.53;3.27;;;;;;;4.83;52.34;97002.63;5065866;28;20283;-66
2021/12/19 11:20:09;;;;;;;2.93;2.60;;;;;;;4.73;53.06;96990.91;5057565;28;20719;-68
2021/12/19 11:23:29;;;;;;;7.97;5.33;;;;;;;4.78;53.53;96989.03;5046302;28;20184;-68
2021/12/19 11:26:50;;;;;;;5.47;4.20;;;;;;;4.81;52.60;96983.84;5060844;28;20304;-68
2021/12/19 11:30:14;;;;;;;4.80;3.20;;;;;;;4.52;53.42;96945.25;5045901;28;20190;-68
2021/12/19 11:33:38;;;;;;;6.57;4.27;;;;;;;4.64;54.20;96955.19;5046082;28;20277;-64
2021/12/19 11:36:59;;;;;;;8.07;4.53;;;;;;;4.73;53.17;96959.28;5045810;28;20226;-67
2021/12/19 11:40:00;;;;;;;11.37;5.63;;;;;;;4.85;53.21;96948.69;5045770;28;20204;-66
2021/12/19 11:42:41;;;;;;;6.20;4.00;;;;;;;4.62;53.21;96945.84;5045422;28;20613;-66
2021/12/19 11:47:54;;;;;;;11.33;6.83;;;;;;;4.79;53.83;96942.00;5046292;28;20251;-66
2021/12/19 11:50:28;;;;;;;10.93;5.43;;;;;;;4.89;52.86;96934.91;5045357;28;20252;-66
2021/12/19 11:52:57;;;;;;;6.63;4.37;;;;;;;5.03;52.73;96932.03;5045967;28;20605;-67
2021/12/19 11:55:46;;;;;;;8.10;4.47;;;;;;;5.08;51.57;96940.44;5045808;28;20227;-67
2021/12/19 11:58:16;;;;;;;5.87;3.17;;;;;;;4.89;51.30;96943.47;5047026;28;20191;-70
2021/12/19 12:00:52;;;;;;;3.30;2.70;;;;;;;4.72;51.72;96937.06;5056787;28;20759;-68
2021/12/19 12:03:23;;;;;;;4.10;3.00;;;;;;;4.65;52.15;96931.25;5046151;28;20668;-66
2021/12/19 12:05:59;;;;;;;3.23;2.70;;;;;;;4.68;51.77;96925.19;5058232;28;20604;-68
2021/12/19 12:08:27;;;;;;;4.30;3.30;;;;;;;4.71;51.82;96914.88;5065906;28;20250;-71
2021/12/19 12:10:59;;;;;;;4.43;3.70;;;;;;;4.73;52.54;96915.66;5064982;28;20259;-68
2021/12/19 12:13:39;;;;;;;7.93;3.70;;;;;;;4.71;52.23;96913.16;5066296;28;20205;-70
2021/12/19 12:16:13;;;;;;;5.30;3.63;;;;;;;4.62;52.95;96913.38;5065805;28;20217;-67
2021/12/19 12:18:43;;;;;;;8.23;3.73;;;;;;;4.73;53.07;96906.25;5065702;28;20192;-68
2021/12/19 12:21:42;;;;;;;5.30;4.23;;;;;;;4.85;53.52;96897.41;5065790;28;20672;-69
2021/12/19 12:24:15;;;;;;;5.83;3.93;;;;;;;4.98;51.96;96888.50;5065882;28;20193;-69
2021/12/19 12:26:59;;;;;;;4.93;3.73;;;;;;;5.10;51.90;96895.03;5064565;28;20194;-66
2021/12/19 12:29:26;;;;;;;5.13;3.87;;;;;;;5.10;52.12;96892.47;5065667;28;20607;-68
2021/12/19 12:31:54;;;;;;;6.40;5.50;;;;;;;5.18;52.47;96880.25;5065814;28;20191;-68
2021/12/19 12:34:21;;;;;;;8.73;4.53;;;;;;;5.22;53.14;96875.00;5065720;28;20251;-68
2021/12/19 12:36:49;;;;;;;5.30;3.67;;;;;;;5.28;52.64;96862.00;5064103;28;20225;-68
2021/12/19 12:39:25;;;;;;;5.37;3.73;;;;;;;5.30;52.67;96860.22;5065921;28;20198;-69
2021/12/19 12:42:01;;;;;;;7.97;3.13;;;;;;;5.29;51.86;96852.59;5065807;28;20278;-67
2021/12/19 12:44:28;;;;;;;4.30;3.50;;;;;;;5.33;51.21;96851.63;5065586;28;20637;-68
2021/12/19 12:46:55;;;;;;;5.93;3.80;;;;;;;5.38;50.81;96842.88;5065818;28;20181;-70
2021/12/19 12:49:25;;;;;;;4.80;3.50;;;;;;;5.35;50.35;96826.75;5065701;28;20224;-68
2021/12/19 12:51:58;;;;;;;8.07;3.40;;;;;;;5.32;51.65;96829.38;5065715;28;20228;-69
2021/12/19 12:54:32;;;;;;;5.60;4.07;;;;;;;5.29;50.82;96827.75;5065961;28;20221;-69
2021/12/19 12:57:06;;;;;;;6.13;3.83;;;;;;;5.26;51.27;96824.41;5065543;28;20222;-68
2021/12/19 12:59:36;;;;;;;4.70;3.77;;;;;;;5.29;51.19;96824.34;5065464;28;20681;-69
2021/12/19 13:04:50;;;;;;;4.63;3.50;;;;;;;5.17;51.71;96828.13;5068950;28;20197;-67
2021/12/19 13:07:22;;;;;;;6.10;3.80;;;;;;;5.14;51.45;96819.63;5069123;28;20203;-69
2021/12/19 13:09:51;;;;;;;6.73;3.97;;;;;;;5.16;52.61;96805.88;5068806;28;20241;-68
2021/12/19 13:12:20;;;;;;;5.93;3.90;;;;;;;5.20;52.84;96801.50;5067316;28;20211;-67
2021/12/19 13:15:09;;;;;;;7.30;4.90;;;;;;;5.14;51.79;96786.28;5068883;28;20225;-68
2021/12/19 13:17:43;;;;;;;7.80;3.93;;;;;;;5.24;52.11;96788.53;5068848;28;20233;-69
2021/12/19 13:20:12;;;;;;;6.83;3.97;;;;;;;5.17;52.90;96789.63;5068778;28;20300;-69
2021/12/19 13:23:08;;;;;;;8.27;4.30;;;;;;;5.19;52.97;96785.28;5068485;28;20205;-69
2021/12/19 13:25:42;;;;;;;9.83;4.53;;;;;;;5.14;52.68;96776.00;5067508;28;20215;-70
2021/12/19 13:28:12;;;;;;;6.03;4.03;;;;;;;5.15;53.52;96777.69;5068719;28;20192;-69
2021/12/19 13:30:42;;;;;;;7.10;4.20;;;;;;;5.13;53.32;96764.88;5068636;28;20292;-67
2021/12/19 13:33:21;;;;;;;6.30;3.93;;;;;;;5.13;53.57;96764.06;5068314;28;20216;-68
2021/12/19 13:35:56;;;;;;;8.70;4.43;;;;;;;4.97;54.04;96750.81;5048243;28;20208;-67
2021/12/19 13:38:28;;;;;;;7.30;5.07;;;;;;;5.06;54.07;96753.13;5048430;28;20246;-65
2021/12/19 13:41:02;;;;;;;7.43;4.97;;;;;;;5.10;54.62;96748.75;5048530;28;20590;-66
2021/12/19 13:43:38;;;;;;;7.77;4.50;;;;;;;5.07;54.90;96743.72;5048297;28;20264;-71
2021/12/19 13:46:09;;;;;;;9.20;4.57;;;;;;;5.08;55.93;96737.69;5048368;28;20272;-67